sensor_id;sensor_type;location;lat;lon;timestamp;P1;durP1;ratioP1;P2;durP2;ratioP2
54412;SDS011;41533;51.390;0.074;2023-02-18T00:00:59;4.75;;;2.13;;
54412;SDS011;41533;51.390;0.074;2023-02-18T00:03:27;4.13;;;1.90;;
54412;SDS011;41533;51.390;0.074;2023-02-18T00:05:55;5.57;;;1.60;;
54412;SDS011;41533;51.390;0.074;2023-02-18T00:08:22;3.45;;;1.70;;
54412;SDS011;41533;51.390;0.074;2023-02-18T00:10:49;2.53;;;1.80;;
54412;SDS011;41533;51.390;0.074;2023-02-18T00:13:17;2.85;;;1.92;;
54412;SDS011;41533;51.390;0.074;2023-02-18T00:15:44;4.38;;;1.33;;
54412;SDS011;41533;51.390;0.074;2023-02-18T00:18:11;2.92;;;1.25;;
54412;SDS011;41533;51.390;0.074;2023-02-18T00:20:38;6.22;;;1.77;;
54412;SDS011;41533;51.390;0.074;2023-02-18T00:23:06;1.35;;;1.25;;
54412;SDS011;41533;51.390;0.074;2023-02-18T00:25:33;2.22;;;1.23;;
54412;SDS011;41533;51.390;0.074;2023-02-18T00:28:00;2.90;;;1.25;;
54412;SDS011;41533;51.390;0.074;2023-02-18T00:30:27;2.13;;;1.38;;
54412;SDS011;41533;51.390;0.074;2023-02-18T00:32:54;1.33;;;1.08;;
54412;SDS011;41533;51.390;0.074;2023-02-18T00:35:22;1.77;;;1.65;;
54412;SDS011;41533;51.390;0.074;2023-02-18T00:37:50;2.50;;;1.23;;
54412;SDS011;41533;51.390;0.074;2023-02-18T00:40:18;3.33;;;1.00;;
54412;SDS011;41533;51.390;0.074;2023-02-18T00:42:45;1.80;;;1.25;;
54412;SDS011;41533;51.390;0.074;2023-02-18T00:45:13;1.55;;;0.90;;
54412;SDS011;41533;51.390;0.074;2023-02-18T00:47:41;3.83;;;1.23;;
54412;SDS011;41533;51.390;0.074;2023-02-18T00:50:08;1.45;;;1.17;;
54412;SDS011;41533;51.390;0.074;2023-02-18T00:52:35;2.53;;;1.75;;
54412;SDS011;41533;51.390;0.074;2023-02-18T00:55:03;2.65;;;1.20;;
54412;SDS011;41533;51.390;0.074;2023-02-18T00:57:32;1.40;;;1.15;;
54412;SDS011;41533;51.390;0.074;2023-02-18T00:59:59;6.22;;;1.52;;
54412;SDS011;41533;51.390;0.074;2023-02-18T01:02:26;4.65;;;1.25;;
54412;SDS011;41533;51.390;0.074;2023-02-18T01:04:53;4.22;;;1.50;;
54412;SDS011;41533;51.390;0.074;2023-02-18T01:07:20;1.13;;;0.93;;
54412;SDS011;41533;51.390;0.074;2023-02-18T01:09:48;1.23;;;0.70;;
54412;SDS011;41533;51.390;0.074;2023-02-18T01:12:15;1.95;;;0.77;;
54412;SDS011;41533;51.390;0.074;2023-02-18T01:14:42;1.85;;;1.10;;
54412;SDS011;41533;51.390;0.074;2023-02-18T01:17:10;0.82;;;0.80;;
54412;SDS011;41533;51.390;0.074;2023-02-18T01:19:39;3.63;;;1.10;;
54412;SDS011;41533;51.390;0.074;2023-02-18T01:22:06;2.70;;;1.15;;
54412;SDS011;41533;51.390;0.074;2023-02-18T01:24:34;3.60;;;0.90;;
54412;SDS011;41533;51.390;0.074;2023-02-18T01:27:01;4.05;;;0.90;;
54412;SDS011;41533;51.390;0.074;2023-02-18T01:29:28;1.95;;;0.85;;
54412;SDS011;41533;51.390;0.074;2023-02-18T01:31:55;3.35;;;1.05;;
54412;SDS011;41533;51.390;0.074;2023-02-18T01:34:23;0.73;;;0.52;;
54412;SDS011;41533;51.390;0.074;2023-02-18T01:36:50;1.20;;;0.60;;
54412;SDS011;41533;51.390;0.074;2023-02-18T01:39:17;1.13;;;0.73;;
54412;SDS011;41533;51.390;0.074;2023-02-18T01:41:44;0.77;;;0.73;;
54412;SDS011;41533;51.390;0.074;2023-02-18T01:46:39;0.52;;;0.52;;
54412;SDS011;41533;51.390;0.074;2023-02-18T01:49:06;1.42;;;0.65;;
54412;SDS011;41533;51.390;0.074;2023-02-18T01:51:35;0.85;;;0.52;;
54412;SDS011;41533;51.390;0.074;2023-02-18T01:54:10;1.73;;;0.70;;
54412;SDS011;41533;51.390;0.074;2023-02-18T01:59:27;0.40;;;0.40;;
54412;SDS011;41533;51.390;0.074;2023-02-18T02:01:56;3.22;;;0.60;;
54412;SDS011;41533;51.390;0.074;2023-02-18T02:04:24;0.50;;;0.50;;
54412;SDS011;41533;51.390;0.074;2023-02-18T02:06:51;0.30;;;0.30;;
54412;SDS011;41533;51.390;0.074;2023-02-18T02:09:22;1.92;;;0.80;;
54412;SDS011;41533;51.390;0.074;2023-02-18T02:25:08;0.55;;;0.47;;
54412;SDS011;41533;51.390;0.074;2023-02-18T02:35:31;0.50;;;0.50;;
54412;SDS011;41533;51.390;0.074;2023-02-18T02:38:04;0.50;;;0.50;;
54412;SDS011;41533;51.390;0.074;2023-02-18T02:40:36;1.05;;;0.50;;
54412;SDS011;41533;51.390;0.074;2023-02-18T02:51:21;0.43;;;0.40;;
54412;SDS011;41533;51.390;0.074;2023-02-18T02:56:13;1.25;;;0.50;;
54412;SDS011;41533;51.390;0.074;2023-02-18T02:58:41;0.73;;;0.40;;
54412;SDS011;41533;51.390;0.074;2023-02-18T03:01:20;7.55;;;1.67;;
54412;SDS011;41533;51.390;0.074;2023-02-18T03:11:33;1.38;;;0.63;;
54412;SDS011;41533;51.390;0.074;2023-02-18T03:14:11;2.72;;;0.50;;
54412;SDS011;41533;51.390;0.074;2023-02-18T03:19:28;2.38;;;0.45;;
54412;SDS011;41533;51.390;0.074;2023-02-18T03:24:34;1.27;;;0.80;;
54412;SDS011;41533;51.390;0.074;2023-02-18T03:27:05;6.03;;;0.70;;
54412;SDS011;41533;51.390;0.074;2023-02-18T03:29:35;0.60;;;0.40;;
54412;SDS011;41533;51.390;0.074;2023-02-18T03:32:04;4.20;;;1.50;;
54412;SDS011;41533;51.390;0.074;2023-02-18T03:34:34;3.30;;;0.50;;
54412;SDS011;41533;51.390;0.074;2023-02-18T03:37:03;2.70;;;0.52;;
54412;SDS011;41533;51.390;0.074;2023-02-18T03:39:31;1.13;;;0.55;;
54412;SDS011;41533;51.390;0.074;2023-02-18T03:41:59;0.93;;;0.50;;
54412;SDS011;41533;51.390;0.074;2023-02-18T03:44:29;0.70;;;0.60;;
54412;SDS011;41533;51.390;0.074;2023-02-18T03:46:56;1.67;;;0.60;;
54412;SDS011;41533;51.390;0.074;2023-02-18T03:49:24;3.40;;;1.00;;
54412;SDS011;41533;51.390;0.074;2023-02-18T03:51:51;2.38;;;0.32;;
54412;SDS011;41533;51.390;0.074;2023-02-18T03:54:18;2.75;;;0.75;;
54412;SDS011;41533;51.390;0.074;2023-02-18T03:56:46;12.70;;;1.08;;
54412;SDS011;41533;51.390;0.074;2023-02-18T03:59:13;0.40;;;0.40;;
54412;SDS011;41533;51.390;0.074;2023-02-18T04:01:40;1.08;;;0.50;;
54412;SDS011;41533;51.390;0.074;2023-02-18T04:04:08;2.33;;;0.60;;
54412;SDS011;41533;51.390;0.074;2023-02-18T04:06:35;4.43;;;0.98;;
54412;SDS011;41533;51.390;0.074;2023-02-18T04:09:02;4.63;;;0.88;;
54412;SDS011;41533;51.390;0.074;2023-02-18T04:11:35;2.17;;;0.75;;
54412;SDS011;41533;51.390;0.074;2023-02-18T04:14:03;3.53;;;2.17;;
54412;SDS011;41533;51.390;0.074;2023-02-18T04:16:30;2.38;;;0.70;;
54412;SDS011;41533;51.390;0.074;2023-02-18T04:18:58;4.75;;;0.90;;
54412;SDS011;41533;51.390;0.074;2023-02-18T04:21:25;0.80;;;0.70;;
54412;SDS011;41533;51.390;0.074;2023-02-18T04:23:52;3.33;;;0.75;;
54412;SDS011;41533;51.390;0.074;2023-02-18T04:26:19;2.17;;;0.77;;
54412;SDS011;41533;51.390;0.074;2023-02-18T04:28:47;4.03;;;0.85;;
54412;SDS011;41533;51.390;0.074;2023-02-18T04:31:14;0.98;;;0.60;;
54412;SDS011;41533;51.390;0.074;2023-02-18T04:33:41;3.42;;;0.82;;
54412;SDS011;41533;51.390;0.074;2023-02-18T04:36:09;1.48;;;0.50;;
54412;SDS011;41533;51.390;0.074;2023-02-18T04:38:36;1.23;;;0.73;;
54412;SDS011;41533;51.390;0.074;2023-02-18T04:41:03;0.55;;;0.40;;
54412;SDS011;41533;51.390;0.074;2023-02-18T04:43:30;0.70;;;0.50;;
54412;SDS011;41533;51.390;0.074;2023-02-18T04:45:58;4.18;;;0.65;;
54412;SDS011;41533;51.390;0.074;2023-02-18T04:48:25;0.70;;;0.57;;
54412;SDS011;41533;51.390;0.074;2023-02-18T04:50:52;1.52;;;0.63;;
54412;SDS011;41533;51.390;0.074;2023-02-18T04:53:19;1.30;;;0.38;;
54412;SDS011;41533;51.390;0.074;2023-02-18T04:55:50;3.70;;;0.73;;
54412;SDS011;41533;51.390;0.074;2023-02-18T04:58:18;3.47;;;0.60;;
54412;SDS011;41533;51.390;0.074;2023-02-18T05:00:46;0.47;;;0.47;;
54412;SDS011;41533;51.390;0.074;2023-02-18T05:03:13;4.38;;;0.75;;
54412;SDS011;41533;51.390;0.074;2023-02-18T05:05:40;0.52;;;0.32;;
54412;SDS011;41533;51.390;0.074;2023-02-18T05:08:08;1.55;;;0.60;;
54412;SDS011;41533;51.390;0.074;2023-02-18T05:10:36;1.10;;;0.82;;
54412;SDS011;41533;51.390;0.074;2023-02-18T05:13:03;2.15;;;0.75;;
54412;SDS011;41533;51.390;0.074;2023-02-18T05:15:30;2.72;;;0.70;;
54412;SDS011;41533;51.390;0.074;2023-02-18T05:17:57;2.08;;;0.57;;
54412;SDS011;41533;51.390;0.074;2023-02-18T05:20:25;1.60;;;0.70;;
54412;SDS011;41533;51.390;0.074;2023-02-18T05:22:52;3.08;;;0.70;;
54412;SDS011;41533;51.390;0.074;2023-02-18T05:25:19;0.65;;;0.40;;
54412;SDS011;41533;51.390;0.074;2023-02-18T05:27:46;1.45;;;0.50;;
54412;SDS011;41533;51.390;0.074;2023-02-18T05:30:13;1.92;;;0.47;;
54412;SDS011;41533;51.390;0.074;2023-02-18T05:32:41;1.33;;;0.60;;
54412;SDS011;41533;51.390;0.074;2023-02-18T05:35:08;2.10;;;0.57;;
54412;SDS011;41533;51.390;0.074;2023-02-18T05:37:35;2.53;;;0.65;;
54412;SDS011;41533;51.390;0.074;2023-02-18T05:40:03;4.13;;;0.60;;
54412;SDS011;41533;51.390;0.074;2023-02-18T05:42:30;5.30;;;0.70;;
54412;SDS011;41533;51.390;0.074;2023-02-18T05:44:58;2.58;;;0.77;;
54412;SDS011;41533;51.390;0.074;2023-02-18T05:47:26;1.90;;;0.80;;
54412;SDS011;41533;51.390;0.074;2023-02-18T05:49:53;1.77;;;0.43;;
54412;SDS011;41533;51.390;0.074;2023-02-18T05:52:21;0.95;;;0.35;;
54412;SDS011;41533;51.390;0.074;2023-02-18T05:54:49;0.90;;;0.52;;
54412;SDS011;41533;51.390;0.074;2023-02-18T05:57:16;1.33;;;0.50;;
54412;SDS011;41533;51.390;0.074;2023-02-18T05:59:43;1.20;;;0.50;;
54412;SDS011;41533;51.390;0.074;2023-02-18T06:02:10;2.63;;;0.47;;
54412;SDS011;41533;51.390;0.074;2023-02-18T06:04:37;1.13;;;0.47;;
54412;SDS011;41533;51.390;0.074;2023-02-18T06:07:06;1.27;;;0.50;;
54412;SDS011;41533;51.390;0.074;2023-02-18T06:09:33;3.03;;;0.70;;
54412;SDS011;41533;51.390;0.074;2023-02-18T06:12:00;1.67;;;0.60;;
54412;SDS011;41533;51.390;0.074;2023-02-18T06:14:28;7.82;;;1.05;;
54412;SDS011;41533;51.390;0.074;2023-02-18T06:16:55;3.83;;;0.68;;
54412;SDS011;41533;51.390;0.074;2023-02-18T06:19:23;2.28;;;0.68;;
54412;SDS011;41533;51.390;0.074;2023-02-18T06:21:50;0.30;;;0.30;;
54412;SDS011;41533;51.390;0.074;2023-02-18T06:24:17;0.30;;;0.30;;
54412;SDS011;41533;51.390;0.074;2023-02-18T06:26:44;0.75;;;0.50;;
54412;SDS011;41533;51.390;0.074;2023-02-18T06:29:11;1.50;;;0.70;;
54412;SDS011;41533;51.390;0.074;2023-02-18T06:31:39;5.65;;;0.55;;
54412;SDS011;41533;51.390;0.074;2023-02-18T06:34:06;0.38;;;0.35;;
54412;SDS011;41533;51.390;0.074;2023-02-18T06:36:33;1.58;;;0.55;;
54412;SDS011;41533;51.390;0.074;2023-02-18T06:39:02;2.35;;;0.57;;
54412;SDS011;41533;51.390;0.074;2023-02-18T06:41:29;1.20;;;0.98;;
54412;SDS011;41533;51.390;0.074;2023-02-18T06:43:56;0.40;;;0.40;;
54412;SDS011;41533;51.390;0.074;2023-02-18T06:46:23;3.28;;;0.70;;
54412;SDS011;41533;51.390;0.074;2023-02-18T06:48:50;0.93;;;0.40;;
54412;SDS011;41533;51.390;0.074;2023-02-18T06:51:18;0.32;;;0.30;;
54412;SDS011;41533;51.390;0.074;2023-02-18T06:53:46;3.30;;;0.40;;
54412;SDS011;41533;51.390;0.074;2023-02-18T06:56:13;0.73;;;0.40;;
54412;SDS011;41533;51.390;0.074;2023-02-18T06:58:40;0.73;;;0.43;;
54412;SDS011;41533;51.390;0.074;2023-02-18T07:01:07;0.63;;;0.30;;
54412;SDS011;41533;51.390;0.074;2023-02-18T07:03:35;1.85;;;0.52;;
54412;SDS011;41533;51.390;0.074;2023-02-18T07:06:02;3.28;;;0.52;;
54412;SDS011;41533;51.390;0.074;2023-02-18T07:08:29;0.73;;;0.68;;
54412;SDS011;41533;51.390;0.074;2023-02-18T07:10:59;1.75;;;0.70;;
54412;SDS011;41533;51.390;0.074;2023-02-18T07:13:26;1.75;;;0.50;;
54412;SDS011;41533;51.390;0.074;2023-02-18T07:15:53;0.45;;;0.40;;
54412;SDS011;41533;51.390;0.074;2023-02-18T07:18:20;0.40;;;0.30;;
54412;SDS011;41533;51.390;0.074;2023-02-18T07:20:47;0.82;;;0.40;;
54412;SDS011;41533;51.390;0.074;2023-02-18T07:23:14;2.10;;;0.50;;
54412;SDS011;41533;51.390;0.074;2023-02-18T07:25:41;3.00;;;0.57;;
54412;SDS011;41533;51.390;0.074;2023-02-18T07:28:09;0.73;;;0.45;;
54412;SDS011;41533;51.390;0.074;2023-02-18T07:30:37;0.45;;;0.45;;
54412;SDS011;41533;51.390;0.074;2023-02-18T07:33:04;0.73;;;0.32;;
54412;SDS011;41533;51.390;0.074;2023-02-18T07:35:32;0.73;;;0.35;;
54412;SDS011;41533;51.390;0.074;2023-02-18T07:37:59;1.85;;;0.60;;
54412;SDS011;41533;51.390;0.074;2023-02-18T07:40:28;0.57;;;0.43;;
54412;SDS011;41533;51.390;0.074;2023-02-18T07:42:56;2.63;;;0.65;;
54412;SDS011;41533;51.390;0.074;2023-02-18T07:45:23;1.95;;;0.45;;
54412;SDS011;41533;51.390;0.074;2023-02-18T07:47:50;1.80;;;0.70;;
54412;SDS011;41533;51.390;0.074;2023-02-18T07:50:17;1.15;;;0.40;;
54412;SDS011;41533;51.390;0.074;2023-02-18T07:52:45;1.77;;;0.57;;
54412;SDS011;41533;51.390;0.074;2023-02-18T07:55:12;1.33;;;0.63;;
54412;SDS011;41533;51.390;0.074;2023-02-18T07:57:39;6.25;;;0.82;;
54412;SDS011;41533;51.390;0.074;2023-02-18T08:00:23;0.80;;;0.40;;
54412;SDS011;41533;51.390;0.074;2023-02-18T08:02:50;0.90;;;0.68;;
54412;SDS011;41533;51.390;0.074;2023-02-18T08:05:17;1.73;;;1.00;;
54412;SDS011;41533;51.390;0.074;2023-02-18T08:07:45;3.80;;;0.80;;
54412;SDS011;41533;51.390;0.074;2023-02-18T08:10:12;1.55;;;0.82;;
54412;SDS011;41533;51.390;0.074;2023-02-18T08:12:39;2.33;;;0.82;;
54412;SDS011;41533;51.390;0.074;2023-02-18T08:15:06;1.58;;;0.75;;
54412;SDS011;41533;51.390;0.074;2023-02-18T08:17:34;1.15;;;0.68;;
54412;SDS011;41533;51.390;0.074;2023-02-18T08:20:01;3.88;;;1.15;;
54412;SDS011;41533;51.390;0.074;2023-02-18T08:22:28;12.10;;;2.10;;
54412;SDS011;41533;51.390;0.074;2023-02-18T08:24:56;1.98;;;1.52;;
54412;SDS011;41533;51.390;0.074;2023-02-18T08:27:23;2.05;;;1.30;;
54412;SDS011;41533;51.390;0.074;2023-02-18T08:29:50;2.50;;;1.20;;
54412;SDS011;41533;51.390;0.074;2023-02-18T08:32:17;2.03;;;1.17;;
54412;SDS011;41533;51.390;0.074;2023-02-18T08:34:45;4.57;;;0.95;;
54412;SDS011;41533;51.390;0.074;2023-02-18T08:37:12;5.45;;;1.45;;
54412;SDS011;41533;51.390;0.074;2023-02-18T08:39:39;3.08;;;1.67;;
54412;SDS011;41533;51.390;0.074;2023-02-18T08:42:06;3.58;;;1.73;;
54412;SDS011;41533;51.390;0.074;2023-02-18T08:44:33;2.05;;;0.85;;
54412;SDS011;41533;51.390;0.074;2023-02-18T08:47:01;5.45;;;1.20;;
54412;SDS011;41533;51.390;0.074;2023-02-18T08:49:28;1.42;;;0.60;;
54412;SDS011;41533;51.390;0.074;2023-02-18T08:51:55;4.13;;;1.10;;
54412;SDS011;41533;51.390;0.074;2023-02-18T08:54:22;3.95;;;1.10;;
54412;SDS011;41533;51.390;0.074;2023-02-18T08:56:53;3.63;;;0.90;;
54412;SDS011;41533;51.390;0.074;2023-02-18T08:59:21;0.73;;;0.73;;
54412;SDS011;41533;51.390;0.074;2023-02-18T09:01:48;3.03;;;0.90;;
54412;SDS011;41533;51.390;0.074;2023-02-18T09:04:16;2.58;;;1.05;;
54412;SDS011;41533;51.390;0.074;2023-02-18T09:06:43;3.22;;;1.20;;
54412;SDS011;41533;51.390;0.074;2023-02-18T09:09:12;1.05;;;0.95;;
54412;SDS011;41533;51.390;0.074;2023-02-18T09:11:40;3.33;;;1.23;;
54412;SDS011;41533;51.390;0.074;2023-02-18T09:14:07;3.13;;;0.80;;
54412;SDS011;41533;51.390;0.074;2023-02-18T09:16:34;1.83;;;0.88;;
54412;SDS011;41533;51.390;0.074;2023-02-18T09:19:01;5.30;;;1.15;;
54412;SDS011;41533;51.390;0.074;2023-02-18T09:21:29;1.02;;;0.57;;
54412;SDS011;41533;51.390;0.074;2023-02-18T09:23:57;1.42;;;0.60;;
54412;SDS011;41533;51.390;0.074;2023-02-18T09:26:25;1.73;;;0.88;;
54412;SDS011;41533;51.390;0.074;2023-02-18T09:28:53;1.00;;;0.68;;
54412;SDS011;41533;51.390;0.074;2023-02-18T09:31:22;1.02;;;0.60;;
54412;SDS011;41533;51.390;0.074;2023-02-18T09:33:50;0.63;;;0.60;;
54412;SDS011;41533;51.390;0.074;2023-02-18T09:36:18;0.60;;;0.60;;
54412;SDS011;41533;51.390;0.074;2023-02-18T09:38:46;3.28;;;0.77;;
54412;SDS011;41533;51.390;0.074;2023-02-18T09:44:00;2.05;;;0.80;;
54412;SDS011;41533;51.390;0.074;2023-02-18T09:46:33;2.28;;;0.60;;
54412;SDS011;41533;51.390;0.074;2023-02-18T09:49:01;3.20;;;0.60;;
54412;SDS011;41533;51.390;0.074;2023-02-18T09:51:29;0.82;;;0.57;;
54412;SDS011;41533;51.390;0.074;2023-02-18T09:53:56;1.02;;;0.43;;
54412;SDS011;41533;51.390;0.074;2023-02-18T09:56:28;2.55;;;0.60;;
54412;SDS011;41533;51.390;0.074;2023-02-18T09:58:57;2.58;;;0.70;;
54412;SDS011;41533;51.390;0.074;2023-02-18T10:01:34;1.08;;;0.65;;
54412;SDS011;41533;51.390;0.074;2023-02-18T10:04:05;3.55;;;0.88;;
54412;SDS011;41533;51.390;0.074;2023-02-18T10:06:36;3.15;;;0.63;;
54412;SDS011;41533;51.390;0.074;2023-02-18T10:09:05;1.05;;;0.70;;
54412;SDS011;41533;51.390;0.074;2023-02-18T10:11:40;0.33;;;0.33;;
54412;SDS011;41533;51.390;0.074;2023-02-18T10:14:08;1.00;;;0.52;;
54412;SDS011;41533;51.390;0.074;2023-02-18T10:16:37;3.50;;;0.85;;
54412;SDS011;41533;51.390;0.074;2023-02-18T10:19:18;1.00;;;0.60;;
54412;SDS011;41533;51.390;0.074;2023-02-18T10:21:46;1.50;;;0.60;;
54412;SDS011;41533;51.390;0.074;2023-02-18T10:27:01;1.08;;;0.65;;
54412;SDS011;41533;51.390;0.074;2023-02-18T10:29:29;0.50;;;0.50;;
54412;SDS011;41533;51.390;0.074;2023-02-18T10:37:19;0.20;;;0.20;;
54412;SDS011;41533;51.390;0.074;2023-02-18T10:39:59;0.38;;;0.38;;
54412;SDS011;41533;51.390;0.074;2023-02-18T10:42:31;0.43;;;0.38;;
54412;SDS011;41533;51.390;0.074;2023-02-18T10:47:37;1.38;;;0.55;;
54412;SDS011;41533;51.390;0.074;2023-02-18T10:50:09;0.40;;;0.40;;
54412;SDS011;41533;51.390;0.074;2023-02-18T10:52:41;4.32;;;0.70;;
54412;SDS011;41533;51.390;0.074;2023-02-18T10:55:10;0.90;;;0.40;;
54412;SDS011;41533;51.390;0.074;2023-02-18T10:57:48;3.05;;;0.45;;
54412;SDS011;41533;51.390;0.074;2023-02-18T11:00:19;0.70;;;0.38;;
54412;SDS011;41533;51.390;0.074;2023-02-18T11:03:25;1.70;;;0.50;;
54412;SDS011;41533;51.390;0.074;2023-02-18T11:05:47;2.42;;;0.75;;
54412;SDS011;41533;51.390;0.074;2023-02-18T11:08:26;0.30;;;0.30;;
54412;SDS011;41533;51.390;0.074;2023-02-18T11:10:53;0.82;;;0.63;;
54412;SDS011;41533;51.390;0.074;2023-02-18T11:13:28;0.40;;;0.40;;
54412;SDS011;41533;51.390;0.074;2023-02-18T11:15:59;1.65;;;0.73;;
54412;SDS011;41533;51.390;0.074;2023-02-18T11:20:55;2.45;;;0.45;;
54412;SDS011;41533;51.390;0.074;2023-02-18T11:23:23;0.73;;;0.43;;
54412;SDS011;41533;51.390;0.074;2023-02-18T11:25:53;1.40;;;0.43;;
54412;SDS011;41533;51.390;0.074;2023-02-18T11:28:32;2.55;;;0.50;;
54412;SDS011;41533;51.390;0.074;2023-02-18T11:31:02;0.50;;;0.50;;
54412;SDS011;41533;51.390;0.074;2023-02-18T11:36:01;1.10;;;0.50;;
54412;SDS011;41533;51.390;0.074;2023-02-18T11:38:35;1.00;;;0.60;;
54412;SDS011;41533;51.390;0.074;2023-02-18T11:41:07;2.33;;;0.60;;
54412;SDS011;41533;51.390;0.074;2023-02-18T11:43:36;1.43;;;0.47;;
54412;SDS011;41533;51.390;0.074;2023-02-18T11:46:09;1.73;;;0.80;;
54412;SDS011;41533;51.390;0.074;2023-02-18T11:48:37;1.95;;;0.60;;
54412;SDS011;41533;51.390;0.074;2023-02-18T11:51:04;0.68;;;0.63;;
54412;SDS011;41533;51.390;0.074;2023-02-18T11:53:34;1.52;;;0.82;;
54412;SDS011;41533;51.390;0.074;2023-02-18T11:56:03;1.17;;;0.50;;
54412;SDS011;41533;51.390;0.074;2023-02-18T11:58:35;0.30;;;0.30;;
54412;SDS011;41533;51.390;0.074;2023-02-18T12:01:04;1.08;;;0.52;;
54412;SDS011;41533;51.390;0.074;2023-02-18T12:03:37;0.93;;;0.88;;
54412;SDS011;41533;51.390;0.074;2023-02-18T12:06:10;2.33;;;0.50;;
54412;SDS011;41533;51.390;0.074;2023-02-18T12:08:50;2.38;;;0.50;;
54412;SDS011;41533;51.390;0.074;2023-02-18T12:11:25;0.55;;;0.50;;
54412;SDS011;41533;51.390;0.074;2023-02-18T12:13:54;1.20;;;0.70;;
54412;SDS011;41533;51.390;0.074;2023-02-18T12:16:32;3.25;;;0.57;;
54412;SDS011;41533;51.390;0.074;2023-02-18T12:19:06;1.20;;;0.55;;
54412;SDS011;41533;51.390;0.074;2023-02-18T12:21:52;5.18;;;0.80;;
54412;SDS011;41533;51.390;0.074;2023-02-18T12:29:32;1.15;;;0.80;;
54412;SDS011;41533;51.390;0.074;2023-02-18T12:37:52;3.28;;;1.02;;
54412;SDS011;41533;51.390;0.074;2023-02-18T13:05:29;5.40;;;1.02;;
54412;SDS011;41533;51.390;0.074;2023-02-18T13:11:08;5.30;;;0.82;;
54412;SDS011;41533;51.390;0.074;2023-02-18T13:16:43;0.50;;;0.50;;
54412;SDS011;41533;51.390;0.074;2023-02-18T13:22:14;0.73;;;0.63;;
54412;SDS011;41533;51.390;0.074;2023-02-18T13:24:44;3.88;;;0.90;;
54412;SDS011;41533;51.390;0.074;2023-02-18T13:35:26;1.55;;;1.10;;
54412;SDS011;41533;51.390;0.074;2023-02-18T13:40:26;2.55;;;1.08;;
54412;SDS011;41533;51.390;0.074;2023-02-18T13:45:42;1.70;;;0.55;;
54412;SDS011;41533;51.390;0.074;2023-02-18T13:48:20;1.15;;;0.80;;
54412;SDS011;41533;51.390;0.074;2023-02-18T13:50:48;1.40;;;0.70;;
54412;SDS011;41533;51.390;0.074;2023-02-18T13:53:19;0.50;;;0.50;;
54412;SDS011;41533;51.390;0.074;2023-02-18T13:55:57;0.70;;;0.70;;
54412;SDS011;41533;51.390;0.074;2023-02-18T14:01:12;1.23;;;0.70;;
54412;SDS011;41533;51.390;0.074;2023-02-18T14:08:41;0.82;;;0.50;;
54412;SDS011;41533;51.390;0.074;2023-02-18T14:16:07;1.17;;;0.73;;
54412;SDS011;41533;51.390;0.074;2023-02-18T14:23:40;2.25;;;0.70;;
54412;SDS011;41533;51.390;0.074;2023-02-18T14:29:25;0.95;;;0.60;;
54412;SDS011;41533;51.390;0.074;2023-02-18T14:31:34;1.25;;;0.55;;
54412;SDS011;41533;51.390;0.074;2023-02-18T14:34:12;1.30;;;0.70;;
54412;SDS011;41533;51.390;0.074;2023-02-18T14:36:45;1.35;;;0.57;;
54412;SDS011;41533;51.390;0.074;2023-02-18T14:41:51;0.85;;;0.50;;
54412;SDS011;41533;51.390;0.074;2023-02-18T14:52:21;1.27;;;0.60;;
54412;SDS011;41533;51.390;0.074;2023-02-18T14:54:49;0.40;;;0.40;;
54412;SDS011;41533;51.390;0.074;2023-02-18T14:57:16;1.98;;;0.73;;
54412;SDS011;41533;51.390;0.074;2023-02-18T14:59:46;1.77;;;0.70;;
54412;SDS011;41533;51.390;0.074;2023-02-18T15:02:21;1.88;;;0.50;;
54412;SDS011;41533;51.390;0.074;2023-02-18T15:04:49;0.40;;;0.40;;
54412;SDS011;41533;51.390;0.074;2023-02-18T15:07:17;0.60;;;0.60;;
54412;SDS011;41533;51.390;0.074;2023-02-18T15:09:52;0.90;;;0.75;;
54412;SDS011;41533;51.390;0.074;2023-02-18T15:12:20;0.73;;;0.60;;
54412;SDS011;41533;51.390;0.074;2023-02-18T15:14:52;0.60;;;0.40;;
54412;SDS011;41533;51.390;0.074;2023-02-18T15:17:23;1.08;;;0.65;;
54412;SDS011;41533;51.390;0.074;2023-02-18T15:19:54;2.08;;;0.80;;
54412;SDS011;41533;51.390;0.074;2023-02-18T15:22:23;1.08;;;0.50;;
54412;SDS011;41533;51.390;0.074;2023-02-18T15:24:52;0.70;;;0.70;;
54412;SDS011;41533;51.390;0.074;2023-02-18T15:29:57;0.93;;;0.50;;
54412;SDS011;41533;51.390;0.074;2023-02-18T15:32:25;1.38;;;0.70;;
54412;SDS011;41533;51.390;0.074;2023-02-18T15:35:00;0.68;;;0.45;;
54412;SDS011;41533;51.390;0.074;2023-02-18T15:37:28;0.57;;;0.55;;
54412;SDS011;41533;51.390;0.074;2023-02-18T15:39:56;1.63;;;0.47;;
54412;SDS011;41533;51.390;0.074;2023-02-18T15:42:25;1.30;;;0.50;;
54412;SDS011;41533;51.390;0.074;2023-02-18T15:45:03;2.00;;;0.90;;
54412;SDS011;41533;51.390;0.074;2023-02-18T15:47:41;0.55;;;0.55;;
54412;SDS011;41533;51.390;0.074;2023-02-18T15:50:16;0.45;;;0.45;;
54412;SDS011;41533;51.390;0.074;2023-02-18T15:52:45;1.17;;;0.70;;
54412;SDS011;41533;51.390;0.074;2023-02-18T15:55:24;1.33;;;0.50;;
54412;SDS011;41533;51.390;0.074;2023-02-18T15:57:53;1.17;;;0.82;;
54412;SDS011;41533;51.390;0.074;2023-02-18T16:00:25;0.63;;;0.60;;
54412;SDS011;41533;51.390;0.074;2023-02-18T16:03:03;2.47;;;0.50;;
54412;SDS011;41533;51.390;0.074;2023-02-18T16:05:36;0.57;;;0.50;;
54412;SDS011;41533;51.390;0.074;2023-02-18T16:08:14;2.28;;;0.43;;
54412;SDS011;41533;51.390;0.074;2023-02-18T16:13:11;2.45;;;0.70;;
54412;SDS011;41533;51.390;0.074;2023-02-18T16:15:41;1.23;;;0.55;;
54412;SDS011;41533;51.390;0.074;2023-02-18T16:21:06;2.20;;;0.68;;
54412;SDS011;41533;51.390;0.074;2023-02-18T16:31:40;0.60;;;0.35;;
54412;SDS011;41533;51.390;0.074;2023-02-18T16:34:07;2.53;;;0.50;;
54412;SDS011;41533;51.390;0.074;2023-02-18T16:36:35;1.98;;;0.70;;
54412;SDS011;41533;51.390;0.074;2023-02-18T16:39:02;0.40;;;0.40;;
54412;SDS011;41533;51.390;0.074;2023-02-18T16:41:30;1.90;;;0.70;;
54412;SDS011;41533;51.390;0.074;2023-02-18T16:43:57;3.25;;;0.73;;
54412;SDS011;41533;51.390;0.074;2023-02-18T16:46:24;1.27;;;0.50;;
54412;SDS011;41533;51.390;0.074;2023-02-18T16:48:52;2.10;;;0.40;;
54412;SDS011;41533;51.390;0.074;2023-02-18T16:51:29;0.52;;;0.40;;
54412;SDS011;41533;51.390;0.074;2023-02-18T16:53:57;0.68;;;0.68;;
54412;SDS011;41533;51.390;0.074;2023-02-18T16:56:25;0.52;;;0.50;;
54412;SDS011;41533;51.390;0.074;2023-02-18T16:58:52;0.80;;;0.55;;
54412;SDS011;41533;51.390;0.074;2023-02-18T17:01:22;0.35;;;0.35;;
54412;SDS011;41533;51.390;0.074;2023-02-18T17:03:50;0.90;;;0.45;;
54412;SDS011;41533;51.390;0.074;2023-02-18T17:06:17;1.05;;;0.60;;
54412;SDS011;41533;51.390;0.074;2023-02-18T17:08:45;0.40;;;0.40;;
54412;SDS011;41533;51.390;0.074;2023-02-18T17:11:35;1.85;;;0.47;;
54412;SDS011;41533;51.390;0.074;2023-02-18T17:14:01;0.88;;;0.40;;
54412;SDS011;41533;51.390;0.074;2023-02-18T17:16:31;0.60;;;0.55;;
54412;SDS011;41533;51.390;0.074;2023-02-18T17:18:58;1.10;;;0.63;;
54412;SDS011;41533;51.390;0.074;2023-02-18T17:21:25;1.10;;;0.50;;
54412;SDS011;41533;51.390;0.074;2023-02-18T17:23:52;1.08;;;0.50;;
54412;SDS011;41533;51.390;0.074;2023-02-18T17:26:21;1.15;;;0.57;;
54412;SDS011;41533;51.390;0.074;2023-02-18T17:28:51;0.50;;;0.50;;
54412;SDS011;41533;51.390;0.074;2023-02-18T17:31:25;1.35;;;0.50;;
54412;SDS011;41533;51.390;0.074;2023-02-18T17:33:53;0.43;;;0.40;;
54412;SDS011;41533;51.390;0.074;2023-02-18T17:36:21;1.00;;;0.63;;
54412;SDS011;41533;51.390;0.074;2023-02-18T17:38:49;0.60;;;0.40;;
54412;SDS011;41533;51.390;0.074;2023-02-18T17:41:16;0.70;;;0.50;;
54412;SDS011;41533;51.390;0.074;2023-02-18T17:43:43;1.10;;;0.43;;
54412;SDS011;41533;51.390;0.074;2023-02-18T17:46:15;1.30;;;0.70;;
54412;SDS011;41533;51.390;0.074;2023-02-18T17:48:43;2.60;;;0.90;;
54412;SDS011;41533;51.390;0.074;2023-02-18T17:53:44;1.40;;;0.90;;
54412;SDS011;41533;51.390;0.074;2023-02-18T17:56:11;1.42;;;0.65;;